Time;durP1;ratioP1;P1;durP2;ratioP2;P2;SDS_P1;SDS_P2;PMS_P1;PMS_P2;Temp;Humidity;BMP_temperature;BMP_pressure;BME280_temperature;BME280_humidity;BME280_pressure;Samples;Min_cycle;Max_cycle;Signal;HPM_P1;HPM_P2
2022/09/14 00:02:10;;;;;;;1999.90;999.90;;;;;;;18.46;91.51;98324.56;10328725;22;20028;-77
2022/09/14 00:06:15;;;;;;;1999.90;999.90;;;;;;;18.41;91.41;98335.34;10295843;23;20024;-77
2022/09/14 00:10:16;;;;;;;1999.90;999.90;;;;;;;18.42;92.20;98337.03;10324347;23;20050;-77
2022/09/14 00:14:18;;;;;;;1999.90;999.90;;;;;;;18.40;92.59;98334.47;10326264;22;20675;-77
2022/09/14 00:18:20;;;;;;;;;;;;;;;18.39;93.20;98331.94;10326015;22;20815;-77
2022/09/14 00:22:21;;;;;;;1999.90;999.90;;;;;;;18.35;92.63;98339.16;10326285;22;19949;-77
2022/09/14 00:26:29;;;;;;;1999.90;999.90;;;;;;;18.30;93.14;98335.88;10328142;22;20073;-77
2022/09/14 00:30:40;;;;;;;1999.90;999.90;;;;;;;18.30;93.20;98346.41;10323186;22;20082;-77
2022/09/14 00:34:48;;;;;;;1999.90;999.90;;;;;;;18.26;93.49;98326.47;10329669;23;20024;-77
2022/09/14 00:38:50;;;;;;;1999.90;999.90;;;;;;;18.26;93.55;98329.09;10332262;22;20430;-78
2022/09/14 00:42:51;;;;;;;1999.90;999.90;;;;;;;18.23;94.05;98312.66;10332796;23;20020;-78
2022/09/14 00:46:57;;;;;;;1999.90;999.90;;;;;;;18.19;94.40;98316.38;10332206;22;20141;-78
2022/09/14 00:50:58;;;;;;;1999.90;999.90;;;;;;;18.12;95.03;98295.66;10337659;22;20514;-78
2022/09/14 00:55:05;;;;;;;1999.90;999.90;;;;;;;18.13;95.71;98304.38;10336353;23;20028;-77
2022/09/14 00:59:15;;;;;;;1999.90;999.90;;;;;;;18.14;96.16;98307.91;10335067;23;20450;-77
2022/09/14 01:03:16;;;;;;;1999.90;999.90;;;;;;;18.12;96.70;98300.91;10327921;23;20062;-77
2022/09/14 01:07:37;;;;;;;1999.90;999.90;;;;;;;18.12;96.87;98300.06;10335830;23;20391;-77
2022/09/14 01:12:00;;;;;;;1999.90;999.90;;;;;;;18.15;96.56;98293.84;10308271;23;20024;-77
2022/09/14 01:16:33;;;;;;;1999.90;999.90;;;;;;;18.16;95.60;98298.16;10329449;23;20044;-77
2022/09/14 01:20:49;;;;;;;1999.90;999.90;;;;;;;18.07;95.20;98297.69;10326773;22;20387;-77
2022/09/14 01:24:55;;;;;;;1999.90;999.90;;;;;;;18.06;95.92;98295.16;10323800;23;20015;-78
2022/09/14 01:29:15;;;;;;;1999.90;999.90;;;;;;;18.07;96.16;98299.47;10300790;23;20020;-77
2022/09/14 01:33:24;;;;;;;1999.90;999.90;;;;;;;18.03;96.25;98303.19;10320278;23;20054;-78
2022/09/14 01:37:52;;;;;;;1999.90;999.90;;;;;;;18.05;96.39;98294.28;10328080;22;20078;-77
2022/09/14 01:41:55;;;;;;;1999.90;999.90;;;;;;;18.07;96.77;98304.72;10318608;23;20035;-78
2022/09/14 01:46:02;;;;;;;1999.90;999.90;;;;;;;18.04;96.94;98324.13;10333921;22;20024;-77
2022/09/14 01:50:15;;;;;;;1999.90;999.90;;;;;;;18.00;97.00;98321.75;10327283;23;20078;-78
2022/09/14 01:54:29;;;;;;;1999.90;999.90;;;;;;;18.02;97.11;98315.47;10327685;22;20107;-78
2022/09/14 01:58:35;;;;;;;1999.90;999.90;;;;;;;18.00;96.34;98314.72;10328325;22;20090;-77
2022/09/14 02:02:40;;;;;;;1999.90;999.90;;;;;;;18.00;95.97;98316.50;10325999;23;20032;-78
2022/09/14 02:06:46;;;;;;;1999.90;999.90;;;;;;;18.01;96.53;98311.16;10333184;23;20031;-78
2022/09/14 02:10:47;;;;;;;1999.90;999.90;;;;;;;18.03;96.69;98295.31;10335240;22;20020;-78
2022/09/14 02:14:51;;;;;;;1999.90;999.90;;;;;;;18.03;97.11;98303.19;10331396;23;20024;-77
2022/09/14 02:18:53;;;;;;;1999.90;999.90;;;;;;;18.00;97.45;98295.47;10304430;23;20362;-77
2022/09/14 02:22:54;;;;;;;1999.90;999.90;;;;;;;17.95;97.22;98302.72;10329338;23;20490;-77
2022/09/14 02:26:57;;;;;;;1999.90;999.90;;;;;;;17.92;97.29;98295.00;10331730;22;20099;-77
2022/09/14 02:31:20;;;;;;;1999.90;999.90;;;;;;;17.93;97.63;98289.66;10328003;22;20089;-78
2022/09/14 02:35:36;;;;;;;1999.90;999.90;;;;;;;17.95;97.85;98276.44;10354008;22;20024;-77
2022/09/14 02:40:02;;;;;;;1999.90;999.90;;;;;;;17.93;97.85;98278.31;10350298;23;20024;-78
2022/09/14 02:44:07;;;;;;;1999.90;999.90;;;;;;;17.90;97.60;98289.84;10332068;23;20077;-77
2022/09/14 02:48:32;;;;;;;1999.90;999.90;;;;;;;17.87;97.71;98286.53;10324273;22;20028;-77
2022/09/14 02:53:09;;;;;;;1999.90;999.90;;;;;;;17.84;98.45;98278.81;10329864;22;20050;-80
2022/09/14 02:57:11;;;;;;;1999.90;999.90;;;;;;;17.81;98.79;98279.81;10330215;22;20419;-80
2022/09/14 03:01:26;;;;;;;1999.90;999.90;;;;;;;17.81;98.76;98277.19;10326113;22;20024;-79
2022/09/14 03:05:28;;;;;;;1999.90;999.90;;;;;;;17.76;98.17;98272.16;10298488;23;20024;-78
2022/09/14 03:09:30;;;;;;;1999.90;999.90;;;;;;;17.75;98.74;98278.34;10339921;23;20020;-77
2022/09/14 03:13:33;;;;;;;1999.90;999.90;;;;;;;17.73;99.05;98279.34;10339262;23;20028;-77
2022/09/14 03:17:35;;;;;;;1999.90;999.90;;;;;;;17.73;99.53;98287.22;10318566;23;20066;-78
2022/09/14 03:21:38;;;;;;;1999.90;999.90;;;;;;;17.69;99.33;98283.91;10323849;23;20394;-77
2022/09/14 03:25:42;;;;;;;1999.90;999.90;;;;;;;17.75;100.00;98288.00;10340908;22;20486;-78
2022/09/14 03:29:50;;;;;;;1999.90;999.90;;;;;;;17.79;100.00;98285.16;10302211;23;20020;-78
2022/09/14 03:33:56;;;;;;;1999.90;999.90;;;;;;;17.83;100.00;98275.34;10319956;22;20423;-78
2022/09/14 03:37:58;;;;;;;1999.90;999.90;;;;;;;17.84;99.83;98282.28;10327052;22;20095;-78
2022/09/14 03:42:00;;;;;;;1999.90;999.90;;;;;;;17.77;99.58;98286.13;10327269;22;20020;-78
2022/09/14 03:46:15;;;;;;;1999.90;999.90;;;;;;;17.76;100.00;98277.41;10320123;22;20031;-78
2022/09/14 03:50:18;;;;;;;1999.90;999.90;;;;;;;17.77;100.00;98276.50;10325880;22;20095;-78
2022/09/14 03:54:20;;;;;;;1999.90;999.90;;;;;;;17.77;100.00;98259.88;10341741;23;20111;-78
2022/09/14 03:58:22;;;;;;;1999.90;999.90;;;;;;;17.81;100.00;98267.53;10351728;22;20076;-78
2022/09/14 04:02:23;;;;;;;1999.90;999.90;;;;;;;17.84;100.00;98253.41;10327748;23;20024;-78
2022/09/14 04:06:31;;;;;;;1999.90;999.90;;;;;;;17.85;100.00;98234.09;10327775;23;20030;-77
2022/09/14 04:10:33;;;;;;;1999.90;999.90;;;;;;;17.88;100.00;98230.44;10330712;23;20020;-77
2022/09/14 04:14:34;;;;;;;1999.90;999.90;;;;;;;17.88;100.00;98233.91;10330288;23;20028;-78
2022/09/14 04:18:36;;;;;;;1999.90;999.90;;;;;;;17.90;99.99;98228.59;10324286;22;20020;-77
2022/09/14 04:22:37;;;;;;;1999.90;999.90;;;;;;;17.85;99.93;98227.97;10327130;23;20081;-78
2022/09/14 04:26:45;;;;;;;1999.90;999.90;;;;;;;17.83;100.00;98238.56;10344533;22;20046;-78
2022/09/14 04:31:01;;;;;;;1999.90;999.90;;;;;;;17.76;100.00;98255.56;10324700;22;20043;-78
2022/09/14 04:35:02;;;;;;;1999.90;999.90;;;;;;;17.75;100.00;98253.84;10330016;22;20346;-77
2022/09/14 04:39:12;;;;;;;1999.90;999.90;;;;;;;17.77;100.00;98249.38;10345591;23;20020;-77
2022/09/14 04:43:14;;;;;;;1999.90;999.90;;;;;;;17.81;100.00;98254.41;10327935;23;20024;-78
2022/09/14 04:47:15;;;;;;;1999.90;999.90;;;;;;;17.83;100.00;98253.47;10323768;22;20481;-77
2022/09/14 04:51:28;;;;;;;1999.90;999.90;;;;;;;17.83;100.00;98254.31;10327860;23;20074;-78
2022/09/14 04:55:30;;;;;;;1999.90;999.90;;;;;;;17.83;100.00;98256.94;10327174;23;20265;-77
2022/09/14 04:59:37;;;;;;;1999.90;999.90;;;;;;;17.84;100.00;98247.28;10328906;23;20135;-77
2022/09/14 05:03:39;;;;;;;1999.90;999.90;;;;;;;17.87;100.00;98249.75;10298207;23;20032;-78
2022/09/14 05:07:40;;;;;;;1999.90;999.90;;;;;;;17.78;100.00;98253.72;10328554;22;20020;-78
2022/09/14 05:11:42;;;;;;;1999.90;999.90;;;;;;;17.75;100.00;98251.22;10301081;23;20119;-78
2022/09/14 05:15:44;;;;;;;1999.90;999.90;;;;;;;17.74;100.00;98254.78;10295021;22;20051;-77
2022/09/14 05:19:46;;;;;;;1999.90;999.90;;;;;;;17.76;100.00;98259.03;10327263;23;20020;-77
2022/09/14 05:23:53;;;;;;;1999.90;999.90;;;;;;;17.78;100.00;98261.59;10328106;23;20102;-77
2022/09/14 05:27:54;;;;;;;1999.90;999.90;;;;;;;17.81;100.00;98253.56;10324513;23;20028;-78
2022/09/14 05:31:56;;;;;;;1999.90;999.90;;;;;;;17.81;100.00;98254.41;10323296;22;20032;-78
2022/09/14 05:36:03;;;;;;;1999.90;999.90;;;;;;;17.81;100.00;98264.91;10300910;23;20020;-78
2022/09/14 05:40:07;;;;;;;1999.90;999.90;;;;;;;17.80;100.00;98263.22;10329089;22;20663;-78
2022/09/14 05:44:09;;;;;;;1999.90;999.90;;;;;;;17.83;100.00;98256.94;10301003;23;20350;-77
2022/09/14 05:48:10;;;;;;;1999.90;999.90;;;;;;;17.86;100.00;98256.78;10321695;23;20093;-78
2022/09/14 05:52:12;;;;;;;1999.90;999.90;;;;;;;17.92;100.00;98255.59;10325788;23;20075;-78
2022/09/14 05:56:14;;;;;;;1999.90;999.90;;;;;;;17.97;100.00;98261.50;10326002;23;20103;-77
2022/09/14 06:00:23;;;;;;;1999.90;999.90;;;;;;;17.94;100.00;98265.09;10339493;22;20776;-77
2022/09/14 06:04:24;;;;;;;1999.90;999.90;;;;;;;17.94;100.00;98278.22;10324635;23;20023;-77
2022/09/14 06:08:26;;;;;;;1999.90;999.90;;;;;;;17.95;100.00;98272.06;10343116;23;20360;-77
2022/09/14 06:12:28;;;;;;;;;;;;;;;17.99;100.00;98257.84;10300221;23;20085;-77
2022/09/14 06:16:30;;;;;;;1999.90;999.90;;;;;;;18.03;100.00;98259.38;10317605;22;19973;-77
2022/09/14 06:20:37;;;;;;;1999.90;999.90;;;;;;;18.08;100.00;98259.13;10323141;23;20081;-77
2022/09/14 06:24:39;;;;;;;1999.90;999.90;;;;;;;18.15;100.00;98257.03;10322696;23;20028;-77
2022/09/14 06:28:41;;;;;;;1999.90;999.90;;;;;;;18.15;100.00;98259.69;10323203;22;20024;-77
2022/09/14 06:32:42;;;;;;;;;;;;;;;18.16;100.00;98258.75;10321574;22;20019;-77
2022/09/14 06:36:50;;;;;;;1999.90;999.90;;;;;;;18.19;100.00;98246.28;10324424;22;19977;-78
2022/09/14 06:41:00;;;;;;;1999.90;999.90;;;;;;;18.29;100.00;98260.59;10348309;22;20024;-77
2022/09/14 06:45:07;;;;;;;1999.90;999.90;;;;;;;18.34;100.00;98255.97;10321789;22;20020;-77
2022/09/14 06:49:12;;;;;;;1999.90;999.90;;;;;;;18.37;100.00;98262.84;10297245;23;20028;-77
2022/09/14 06:53:13;;;;;;;1999.90;999.90;;;;;;;18.40;100.00;98260.03;10322767;23;20049;-77
2022/09/14 06:57:21;;;;;;;1999.90;999.90;;;;;;;18.45;100.00;98263.25;10322356;23;20078;-77
2022/09/14 07:01:29;;;;;;;1999.90;999.90;;;;;;;18.51;100.00;98264.72;10317679;22;20038;-77
2022/09/14 07:05:31;;;;;;;1999.90;999.90;;;;;;;18.55;100.00;98276.78;10298157;23;20020;-77
2022/09/14 07:09:40;;;;;;;1999.90;999.90;;;;;;;18.61;100.00;98265.91;10299129;23;20668;-77
2022/09/14 07:13:48;;;;;;;1999.90;999.90;;;;;;;18.64;100.00;98261.34;10324382;23;20705;-77
2022/09/14 07:17:49;;;;;;;1999.90;999.90;;;;;;;18.75;100.00;98247.63;10325561;22;20434;-77
2022/09/14 07:21:52;;;;;;;1999.90;999.90;;;;;;;18.86;100.00;98247.03;10323275;23;20439;-78
2022/09/14 07:26:13;;;;;;;1999.90;999.90;;;;;;;18.92;100.00;98250.16;10322518;23;20257;-77
2022/09/14 07:30:15;;;;;;;1999.90;999.90;;;;;;;18.97;100.00;98257.78;10334619;22;20024;-77
2022/09/14 07:34:17;;;;;;;1999.90;999.90;;;;;;;19.01;100.00;98268.03;10320659;22;20115;-77
2022/09/14 07:38:19;;;;;;;1999.90;999.90;;;;;;;19.06;100.00;98274.84;10323186;23;20068;-77
2022/09/14 07:42:52;;;;;;;1999.90;999.90;;;;;;;19.19;100.00;98294.25;10307761;23;20031;-78
2022/09/14 07:46:57;;;;;;;1999.90;999.90;;;;;;;19.33;100.00;98284.63;10324815;22;20020;-77
2022/09/14 07:51:07;;;;;;;1999.90;999.90;;;;;;;19.44;99.90;98283.16;10329384;22;20062;-77
2022/09/14 07:55:16;;;;;;;1999.90;999.90;;;;;;;19.47;99.01;98281.19;10324724;23;20077;-77
2022/09/14 07:59:24;;;;;;;1999.90;999.90;;;;;;;19.53;99.32;98275.56;10327723;23;20095;-77
2022/09/14 08:03:43;;;;;;;1999.90;999.90;;;;;;;19.65;99.27;98281.94;10325798;22;20126;-78
2022/09/14 08:07:45;;;;;;;1999.90;999.90;;;;;;;19.71;98.79;98271.03;10325108;23;20016;-78
2022/09/14 08:11:46;;;;;;;1999.90;999.90;;;;;;;19.75;98.69;98272.56;10303795;23;20020;-78
2022/09/14 08:15:47;;;;;;;1999.90;999.90;;;;;;;19.86;99.21;98272.75;10325730;22;20088;-78
2022/09/14 08:19:50;;;;;;;1999.90;999.90;;;;;;;20.06;99.09;98262.78;10342990;23;20436;-78
2022/09/14 08:23:53;;;;;;;1999.90;999.90;;;;;;;20.31;99.01;98281.47;10327578;23;20024;-78
2022/09/14 08:27:54;;;;;;;1999.90;999.90;;;;;;;20.46;98.17;98300.75;10328332;23;20015;-78
2022/09/14 08:31:57;;;;;;;1999.90;999.90;;;;;;;20.59;97.80;98298.22;10324051;22;20089;-78
2022/09/14 08:35:59;;;;;;;1999.90;999.90;;;;;;;20.61;97.70;98301.59;10334465;22;20028;-78
2022/09/14 08:40:01;;;;;;;1999.90;999.90;;;;;;;20.59;97.16;98304.34;10332797;23;20027;-78
2022/09/14 08:44:08;;;;;;;1999.90;999.90;;;;;;;20.54;96.96;98308.22;10345688;22;20024;-77
2022/09/14 08:48:24;;;;;;;1999.90;999.90;;;;;;;20.56;97.52;98311.59;10328941;22;20028;-77
2022/09/14 08:52:34;;;;;;;1999.90;999.90;;;;;;;20.63;97.60;98311.09;10328261;23;20058;-78
2022/09/14 08:56:40;;;;;;;1999.90;999.90;;;;;;;20.60;97.36;98308.66;10328771;23;20016;-77
2022/09/14 09:01:03;;;;;;;1999.90;999.90;;;;;;;20.71;98.30;98306.22;10327596;22;20062;-77
2022/09/14 09:05:30;;;;;;;1999.90;999.90;;;;;;;20.90;98.59;98299.78;10327940;23;20020;-77
2022/09/14 09:09:49;;;;;;;1999.90;999.90;;;;;;;21.01;98.35;98292.88;10340330;23;20039;-76
2022/09/14 09:13:58;;;;;;;1999.90;999.90;;;;;;;21.13;97.81;98288.56;10295794;23;20111;-77
2022/09/14 09:18:08;;;;;;;;;;;;;;;21.14;96.89;98290.25;10322080;23;20077;-77
2022/09/14 09:22:20;;;;;;;1999.90;999.90;;;;;;;21.13;96.85;98278.84;10321299;22;19919;-77
2022/09/14 09:26:24;;;;;;;1999.90;999.90;;;;;;;21.09;96.48;98272.09;10322814;22;20085;-77
2022/09/14 09:30:32;;;;;;;1999.90;999.90;;;;;;;21.08;97.08;98264.28;10320622;22;20020;-78
2022/09/14 09:34:35;;;;;;;1999.90;999.90;;;;;;;21.09;97.00;98271.25;10342521;22;20020;-77
2022/09/14 09:38:36;;;;;;;1999.90;999.90;;;;;;;21.17;97.60;98266.31;10326632;23;20052;-77
2022/09/14 09:43:14;;;;;;;1999.90;999.90;;;;;;;21.37;97.49;98254.47;10301266;23;20024;-78
2022/09/14 09:47:40;;;;;;;1999.90;999.90;;;;;;;21.68;96.30;98243.53;10322691;22;20493;-77
2022/09/14 09:51:41;;;;;;;1999.90;999.90;;;;;;;21.89;94.38;98237.72;10333204;22;20059;-79
2022/09/14 09:55:47;;;;;;;1999.90;999.90;;;;;;;21.96;92.19;98231.06;10360998;22;20020;-77
2022/09/14 09:59:49;;;;;;;1999.90;999.90;;;;;;;22.05;91.97;98225.16;10334905;23;20046;-78
2022/09/14 10:04:04;;;;;;;1999.90;999.90;;;;;;;22.09;91.03;98218.75;10332444;22;20062;-78
2022/09/14 10:08:14;;;;;;;1999.90;999.90;;;;;;;22.25;91.70;98221.97;10334042;23;20362;-78
2022/09/14 10:12:15;;;;;;;1999.90;999.90;;;;;;;22.33;91.45;98215.31;10303544;23;20107;-78
2022/09/14 10:16:29;;;;;;;1999.90;999.90;;;;;;;22.28;90.81;98208.56;10320480;22;20101;-78
2022/09/14 10:20:31;;;;;;;1999.90;999.90;;;;;;;22.21;90.96;98215.22;10298631;23;20454;-78
2022/09/14 10:24:34;;;;;;;1999.90;999.90;;;;;;;22.22;92.72;98194.91;10347920;22;20102;-78
2022/09/14 10:28:37;;;;;;;1999.90;999.90;;;;;;;22.30;93.25;98196.06;10346037;23;20441;-79
2022/09/14 10:32:43;;;;;;;1999.90;999.90;;;;;;;22.48;92.55;98196.53;10325521;22;20593;-77
2022/09/14 10:36:55;;;;;;;1999.90;999.90;;;;;;;22.74;91.22;98172.63;10328706;23;20173;-79
2022/09/14 10:41:30;;;;;;;1999.90;999.90;;;;;;;23.04;90.45;98170.41;10306417;23;20077;-78
2022/09/14 10:45:37;;;;;;;1999.90;999.90;;;;;;;23.39;88.67;98174.84;10325706;22;20130;-78
2022/09/14 10:50:05;;;;;;;1999.90;999.90;;;;;;;23.65;86.44;98164.91;10328954;23;20810;-78
2022/09/14 10:54:33;;;;;;;1999.90;999.90;;;;;;;23.74;84.94;98164.22;10327243;23;20024;-78
2022/09/14 10:58:59;;;;;;;1999.90;999.90;;;;;;;23.83;83.96;98162.63;10327316;23;20020;-77
2022/09/14 11:03:32;;;;;;;1999.90;999.90;;;;;;;23.68;84.87;98167.31;10323188;23;20052;-77
2022/09/14 11:07:53;;;;;;;1999.90;999.90;;;;;;;23.45;84.56;98169.06;10328588;23;20023;-78
2022/09/14 11:12:14;;;;;;;1999.90;999.90;;;;;;;23.32;85.06;98166.50;10343988;23;20044;-78
2022/09/14 11:16:51;;;;;;;1999.90;999.90;;;;;;;23.32;85.20;98176.25;10339223;22;20119;-78
2022/09/14 11:21:16;;;;;;;1999.90;999.90;;;;;;;23.33;86.43;98180.59;10329638;22;20047;-79
2022/09/14 11:25:32;;;;;;;1999.90;999.90;;;;;;;23.37;87.45;98187.34;10331487;22;20111;-78
2022/09/14 11:29:41;;;;;;;1999.90;999.90;;;;;;;23.32;86.88;98184.19;10328797;23;20045;-78
2022/09/14 11:33:52;;;;;;;1999.90;999.90;;;;;;;23.22;85.93;98184.06;10325174;23;20027;-77
2022/09/14 11:38:21;;;;;;;1999.90;999.90;;;;;;;23.19;85.77;98179.00;10348096;23;20016;-78
2022/09/14 11:42:31;;;;;;;1999.90;999.90;;;;;;;23.24;86.24;98182.13;10329307;22;20670;-77
2022/09/14 11:47:03;;;;;;;1999.90;999.90;;;;;;;23.29;85.85;98182.63;10322020;22;20116;-78
2022/09/14 11:51:10;;;;;;;1999.90;999.90;;;;;;;23.39;84.63;98183.63;10277426;23;20020;-78
2022/09/14 11:55:19;;;;;;;1999.90;999.90;;;;;;;23.49;83.65;98181.09;10322826;23;20103;-77
2022/09/14 11:59:39;;;;;;;1999.90;999.90;;;;;;;23.54;82.41;98183.44;10321398;22;20041;-77
2022/09/14 12:03:53;;;;;;;1999.90;999.90;;;;;;;23.46;79.59;98171.59;10315292;23;20072;-78
2022/09/14 12:08:23;;;;;;;1999.90;999.90;;;;;;;23.36;80.68;98185.69;10336491;23;20039;-76
2022/09/14 12:12:31;;;;;;;1999.90;999.90;;;;;;;23.23;81.85;98185.75;10321042;23;20050;-76
2022/09/14 12:16:32;;;;;;;1999.90;999.90;;;;;;;23.19;83.07;98184.28;10316883;22;20445;-77
2022/09/14 12:20:41;;;;;;;1999.90;999.90;;;;;;;23.12;83.04;98183.88;10322322;22;20047;-78
2022/09/14 12:24:43;;;;;;;1999.90;999.90;;;;;;;23.03;83.70;98195.19;10335494;23;20086;-77
2022/09/14 12:28:47;;;;;;;1999.90;999.90;;;;;;;22.83;85.55;98182.59;10320140;22;20069;-77
2022/09/14 12:32:49;;;;;;;1999.90;999.90;;;;;;;22.65;87.63;98197.13;10315907;23;20028;-76
2022/09/14 12:36:50;;;;;;;1999.90;999.90;;;;;;;22.49;89.55;98194.75;10320088;23;20774;-76
2022/09/14 12:41:14;;;;;;;1999.90;999.90;;;;;;;22.31;90.29;98199.56;10296334;23;20020;-76
2022/09/14 12:45:49;;;;;;;1999.90;999.90;;;;;;;21.88;85.88;98201.66;10314587;22;20016;-77
2022/09/14 12:50:04;;;;;;;;;;;;;;;21.66;87.49;98187.31;10323810;23;20453;-77
2022/09/14 12:54:08;;;;;;;1999.90;999.90;;;;;;;21.48;89.00;98179.78;10322803;22;19919;-77
2022/09/14 12:58:24;;;;;;;1999.90;999.90;;;;;;;21.37;89.73;98191.09;10319896;23;20107;-77
2022/09/14 13:02:55;;;;;;;1999.90;999.90;;;;;;;21.25;89.80;98198.03;10315456;22;20389;-77
2022/09/14 13:06:59;;;;;;;1999.90;999.90;;;;;;;20.99;87.41;98198.88;10323208;23;20102;-77
2022/09/14 13:11:01;;;;;;;1999.90;999.90;;;;;;;20.77;87.79;98184.44;10322675;23;20028;-76
2022/09/14 13:15:16;;;;;;;1999.90;999.90;;;;;;;20.63;88.24;98195.03;10323821;22;20607;-78
2022/09/14 13:19:20;;;;;;;1999.90;999.90;;;;;;;20.50;89.09;98171.28;10320590;22;20035;-75
2022/09/14 13:23:34;;;;;;;1999.90;999.90;;;;;;;20.46;90.09;98177.66;10338331;23;20024;-78
2022/09/14 13:27:38;;;;;;;1999.90;999.90;;;;;;;20.37;90.98;98166.84;10321597;23;20027;-77
2022/09/14 13:31:47;;;;;;;1999.90;999.90;;;;;;;20.36;91.55;98150.19;10318028;22;20028;-77
2022/09/14 13:36:03;;;;;;;1999.90;999.90;;;;;;;20.30;91.93;98118.94;10322138;22;20024;-77
2022/09/14 13:40:07;;;;;;;1999.90;999.90;;;;;;;20.31;91.85;98130.34;10322989;23;20102;-78
2022/09/14 13:44:11;;;;;;;1999.90;999.90;;;;;;;20.27;92.00;98149.91;10324673;22;20471;-78
2022/09/14 13:48:15;;;;;;;1999.90;999.90;;;;;;;20.17;92.42;98173.38;10287241;23;20387;-80
2022/09/14 13:52:22;;;;;;;1999.90;999.90;;;;;;;20.14;93.52;98171.78;10338847;23;20027;-80
2022/09/14 13:56:44;;;;;;;1999.90;999.90;;;;;;;20.13;93.34;98163.97;10343714;22;20016;-80
2022/09/14 14:00:52;;;;;;;1999.90;999.90;;;;;;;20.18;93.85;98160.09;10321634;22;20042;-80
2022/09/14 14:04:53;;;;;;;1999.90;999.90;;;;;;;20.29;94.16;98145.38;10301185;23;20019;-80
2022/09/14 14:09:08;;;;;;;1999.90;999.90;;;;;;;20.37;93.69;98146.59;10327232;23;20105;-81
2022/09/14 14:13:09;;;;;;;1999.90;999.90;;;;;;;20.56;93.85;98141.00;10345969;22;20074;-80
2022/09/14 14:17:35;;;;;;;1999.90;999.90;;;;;;;20.82;93.51;98134.00;10296864;22;20111;-80
2022/09/14 14:21:37;;;;;;;1999.90;999.90;;;;;;;20.95;92.00;98153.38;10343190;23;20328;-81
2022/09/14 14:25:40;;;;;;;1999.90;999.90;;;;;;;21.08;91.36;98140.22;10325346;23;20115;-81
2022/09/14 14:29:46;;;;;;;1999.90;999.90;;;;;;;21.28;90.39;98142.38;10299555;23;20162;-79
2022/09/14 14:33:50;;;;;;;1999.90;999.90;;;;;;;21.50;90.03;98117.97;10318618;23;20081;-80
2022/09/14 14:37:53;;;;;;;1999.90;999.90;;;;;;;21.61;88.38;98125.19;10338131;23;20023;-79
2022/09/14 14:41:55;;;;;;;1999.90;999.90;;;;;;;21.68;88.03;98103.50;10324449;23;20081;-78
2022/09/14 14:46:06;;;;;;;1999.90;999.90;;;;;;;21.74;87.11;98101.41;10321983;23;20668;-79
2022/09/14 14:50:16;;;;;;;1999.90;999.90;;;;;;;21.93;87.24;98097.34;10341503;22;20020;-79
2022/09/14 14:54:18;;;;;;;1999.90;999.90;;;;;;;21.99;86.43;98096.88;10298099;23;20024;-80
2022/09/14 14:58:26;;;;;;;1999.90;999.90;;;;;;;22.07;86.63;98085.78;10324932;23;20320;-79
2022/09/14 15:02:27;;;;;;;1999.90;999.90;;;;;;;22.07;85.69;98093.72;10319500;22;20032;-79
2022/09/14 15:06:28;;;;;;;1999.90;999.90;;;;;;;22.10;85.50;98092.69;10322646;23;20016;-80
2022/09/14 15:10:38;;;;;;;1999.90;999.90;;;;;;;22.07;85.57;98079.66;10324339;23;20026;-80
2022/09/14 15:14:45;;;;;;;1999.90;999.90;;;;;;;22.23;86.34;98077.59;10324503;23;20085;-80
2022/09/14 15:18:54;;;;;;;1999.90;999.90;;;;;;;22.31;84.65;98069.97;10322503;23;20043;-79
2022/09/14 15:22:55;;;;;;;1999.90;999.90;;;;;;;22.33;85.01;98065.41;10340270;23;20106;-79
2022/09/14 15:26:58;;;;;;;1999.90;999.90;;;;;;;22.32;84.79;98071.63;10323532;23;20020;-80
2022/09/14 15:30:59;;;;;;;1999.90;999.90;;;;;;;22.24;84.52;98079.28;10334466;22;20089;-79
2022/09/14 15:35:09;;;;;;;1999.90;999.90;;;;;;;22.14;85.34;98086.19;10323419;23;20066;-80
2022/09/14 15:39:23;;;;;;;1999.90;999.90;;;;;;;22.01;86.27;98092.34;10319707;23;20121;-80
2022/09/14 15:43:25;;;;;;;1999.90;999.90;;;;;;;21.95;86.91;98097.22;10319048;23;20104;-80
2022/09/14 15:47:26;;;;;;;1999.90;999.90;;;;;;;21.99;87.30;98109.25;10324981;22;20046;-80
2022/09/14 15:51:27;;;;;;;1999.90;999.90;;;;;;;22.02;87.08;98106.41;10320071;23;20058;-80
2022/09/14 15:55:29;;;;;;;1999.90;999.90;;;;;;;21.97;87.32;98109.38;10324034;23;20020;-80
2022/09/14 15:59:30;;;;;;;1999.90;999.90;;;;;;;21.94;87.14;98109.59;10323947;23;20077;-79
2022/09/14 16:03:32;;;;;;;1999.90;999.90;;;;;;;21.85;87.77;98112.03;10320740;23;20911;-80
2022/09/14 16:07:34;;;;;;;1999.90;999.90;;;;;;;21.81;87.50;98106.13;10327604;23;20047;-80
2022/09/14 16:11:36;;;;;;;1999.90;999.90;;;;;;;21.73;87.29;98105.00;10303157;23;20106;-78
2022/09/14 16:15:38;;;;;;;1999.90;999.90;;;;;;;21.68;88.19;98110.56;10322849;22;20134;-79
2022/09/14 16:19:48;;;;;;;1999.90;999.90;;;;;;;21.65;88.38;98106.34;10325345;23;20406;-79
2022/09/14 16:23:56;;;;;;;1999.90;999.90;;;;;;;21.58;88.52;98120.13;10342329;23;20022;-79
2022/09/14 16:27:57;;;;;;;1999.90;999.90;;;;;;;21.50;88.88;98119.78;10325860;23;20055;-79
2022/09/14 16:31:59;;;;;;;1999.90;999.90;;;;;;;21.47;89.16;98115.56;10322974;22;20028;-78
2022/09/14 16:36:06;;;;;;;1999.90;999.90;;;;;;;21.39;88.76;98125.81;10343289;22;20366;-80
2022/09/14 16:40:14;;;;;;;1999.90;999.90;;;;;;;21.32;87.88;98113.97;10327372;23;20348;-79
2022/09/14 16:44:20;;;;;;;1999.90;999.90;;;;;;;21.28;87.58;98115.97;10325681;23;20024;-79
2022/09/14 16:48:28;;;;;;;1999.90;999.90;;;;;;;21.26;86.88;98112.59;10325126;23;20107;-79
2022/09/14 16:52:30;;;;;;;1999.90;999.90;;;;;;;21.28;86.36;98113.34;10327056;23;20469;-79
2022/09/14 16:56:33;;;;;;;1999.90;999.90;;;;;;;21.28;85.62;98104.56;10344415;22;20024;-79
2022/09/14 17:00:35;;;;;;;1999.90;999.90;;;;;;;21.22;84.65;98097.06;10323257;22;20020;-79
2022/09/14 17:04:36;;;;;;;1999.90;999.90;;;;;;;21.20;84.76;98096.31;10327144;22;20119;-79
2022/09/14 17:08:46;;;;;;;1999.90;999.90;;;;;;;21.15;84.29;98083.41;10324767;23;20039;-79
2022/09/14 17:12:47;;;;;;;1999.90;999.90;;;;;;;21.09;83.92;98087.31;10341704;23;20797;-79
2022/09/14 17:16:49;;;;;;;1999.90;999.90;;;;;;;20.99;83.76;98094.16;10320954;22;20110;-79
2022/09/14 17:21:04;;;;;;;1999.90;999.90;;;;;;;20.91;84.01;98098.28;10342526;23;20103;-79
2022/09/14 17:25:12;;;;;;;1999.90;999.90;;;;;;;20.83;84.49;98085.59;10301464;23;20471;-79
2022/09/14 17:29:20;;;;;;;1999.90;999.90;;;;;;;20.73;85.03;98080.09;10323019;23;20012;-80
2022/09/14 17:33:22;;;;;;;1999.90;999.90;;;;;;;20.61;85.43;98087.94;10292530;23;20028;-79
2022/09/14 17:37:23;;;;;;;1999.90;999.90;;;;;;;20.53;86.34;98093.75;10319904;23;20112;-79
2022/09/14 17:41:32;;;;;;;1999.90;999.90;;;;;;;20.41;86.96;98097.16;10297839;23;20435;-79
2022/09/14 17:45:34;;;;;;;1999.90;999.90;;;;;;;20.31;87.24;98086.38;10318315;22;20535;-79
2022/09/14 17:49:35;;;;;;;1999.90;999.90;;;;;;;20.21;88.18;98099.28;10322474;23;20103;-79
2022/09/14 17:53:38;;;;;;;1999.90;999.90;;;;;;;20.14;88.75;98107.69;10320420;23;20479;-79
2022/09/14 17:57:40;;;;;;;1999.90;999.90;;;;;;;20.05;89.42;98117.00;10340648;23;20030;-78
2022/09/14 18:01:42;;;;;;;1999.90;999.90;;;;;;;19.99;90.21;98127.09;10322090;23;20043;-80
2022/09/14 18:05:52;;;;;;;1999.90;999.90;;;;;;;19.93;90.79;98133.59;10323211;22;20066;-80
2022/09/14 18:10:01;;;;;;;1999.90;999.90;;;;;;;19.83;91.56;98133.31;10337400;23;20011;-80